createdAt,value
2019-03-04T00:02:24.881Z,9.30
2019-03-04T00:04:54.535Z,9.30
2019-03-04T00:07:24.263Z,9.20
2019-03-04T00:09:53.883Z,9.30
2019-03-04T00:12:23.212Z,9.40
2019-03-04T00:14:52.828Z,9.60
2019-03-04T00:17:22.360Z,9.80
2019-03-04T00:19:51.623Z,10.20
2019-03-04T00:22:21.232Z,10.50
2019-03-04T00:24:50.736Z,10.60
2019-03-04T00:27:20.089Z,10.70
2019-03-04T00:29:49.534Z,10.80
2019-03-04T00:32:19.204Z,10.80
2019-03-04T00:34:48.491Z,10.90
2019-03-04T00:37:17.720Z,10.90
2019-03-04T00:39:47.612Z,10.90
2019-03-04T00:42:16.929Z,11.00
2019-03-04T00:44:46.203Z,11.00
2019-03-04T00:47:15.468Z,11.10
2019-03-04T00:49:45.315Z,11.20
2019-03-04T00:52:14.543Z,11.40
2019-03-04T00:54:44.176Z,11.40
2019-03-04T00:57:13.415Z,11.50
2019-03-04T00:59:43.008Z,11.50
2019-03-04T01:02:12.236Z,11.50
2019-03-04T01:04:41.496Z,11.50
2019-03-04T01:07:10.823Z,11.40
2019-03-04T01:09:40.075Z,11.40
2019-03-04T01:12:09.387Z,11.40
2019-03-04T01:14:38.654Z,11.50
2019-03-04T01:17:07.995Z,11.50
2019-03-04T01:19:37.638Z,11.40
2019-03-04T01:22:07.208Z,11.30
2019-03-04T01:24:36.463Z,11.30
2019-03-04T01:27:05.980Z,11.30
2019-03-04T01:29:35.244Z,11.30
2019-03-04T01:32:04.489Z,11.30
2019-03-04T01:34:34.020Z,11.40
2019-03-04T01:37:03.327Z,11.30
2019-03-04T01:39:32.597Z,11.40
2019-03-04T01:42:02.140Z,11.50
2019-03-04T01:44:31.666Z,11.60
2019-03-04T01:47:00.980Z,11.60
2019-03-04T01:49:30.285Z,11.60
2019-03-04T01:51:59.551Z,11.70
2019-03-04T01:54:28.814Z,11.70
2019-03-04T01:56:58.309Z,11.70
2019-03-04T01:59:27.631Z,11.70
2019-03-04T02:01:57.136Z,11.70
2019-03-04T02:04:26.734Z,11.70
2019-03-04T02:06:56.046Z,11.60
2019-03-04T02:09:25.467Z,11.60
2019-03-04T02:11:54.971Z,11.50
2019-03-04T02:14:24.311Z,11.50
2019-03-04T02:16:53.545Z,11.50
2019-03-04T02:19:23.305Z,11.60
2019-03-04T02:21:52.557Z,11.60
2019-03-04T02:24:26.771Z,11.60
2019-03-04T02:26:58.072Z,11.50
2019-03-04T02:29:27.307Z,11.50
2019-03-04T02:31:56.585Z,11.60
2019-03-04T02:34:25.817Z,11.70
2019-03-04T02:36:55.075Z,11.60
2019-03-04T02:39:24.387Z,11.60
2019-03-04T02:41:53.645Z,11.60
2019-03-04T02:44:22.876Z,11.60
2019-03-04T02:46:52.217Z,11.60
2019-03-04T02:49:21.723Z,11.50
2019-03-04T02:51:50.987Z,11.50
2019-03-04T02:54:20.489Z,11.50
2019-03-04T02:56:49.828Z,11.50
2019-03-04T02:59:19.079Z,11.50
2019-03-04T03:01:48.662Z,11.40
2019-03-04T03:04:18.218Z,11.40
2019-03-04T03:06:47.472Z,11.30
2019-03-04T03:09:16.777Z,11.10
2019-03-04T03:11:46.417Z,11.10
2019-03-04T03:14:15.660Z,11.00
2019-03-04T03:16:44.908Z,11.00
2019-03-04T03:19:14.136Z,11.10
2019-03-04T03:21:43.424Z,11.10
2019-03-04T03:24:12.957Z,11.10
2019-03-04T03:26:42.217Z,11.10
2019-03-04T03:29:11.633Z,10.90
2019-03-04T03:31:40.970Z,10.80
2019-03-04T03:34:10.207Z,10.80
2019-03-04T03:36:39.757Z,10.80
2019-03-04T03:39:08.989Z,10.70
2019-03-04T03:41:38.245Z,10.70
2019-03-04T03:44:07.480Z,10.60
2019-03-04T03:46:37.098Z,10.50
2019-03-04T03:49:06.672Z,10.50
2019-03-04T03:51:36.218Z,10.40
2019-03-04T03:54:05.816Z,10.40
2019-03-04T03:56:35.059Z,10.40
2019-03-04T03:59:04.391Z,10.40
2019-03-04T04:01:33.678Z,10.50
2019-03-04T04:04:02.939Z,10.40
2019-03-04T04:06:32.177Z,10.40
2019-03-04T04:09:01.408Z,10.30
2019-03-04T04:11:30.678Z,10.30
2019-03-04T04:13:59.996Z,10.30
2019-03-04T04:16:29.520Z,10.20
2019-03-04T04:18:58.944Z,10.20
2019-03-04T04:21:28.489Z,10.20
2019-03-04T04:23:58.063Z,10.30
2019-03-04T04:26:27.343Z,10.30
2019-03-04T04:29:11.086Z,10.30
2019-03-04T04:31:40.627Z,10.30
2019-03-04T04:34:09.932Z,10.30
2019-03-04T04:36:39.191Z,10.40
2019-03-04T04:39:08.770Z,10.40
2019-03-04T04:41:38.294Z,10.50
2019-03-04T04:44:07.666Z,10.60
2019-03-04T04:46:56.678Z,10.60
2019-03-04T04:49:28.047Z,10.60
2019-03-04T04:51:57.299Z,10.50
2019-03-04T04:54:26.528Z,10.50
2019-03-04T04:56:55.794Z,10.40
2019-03-04T04:59:25.639Z,10.40
2019-03-04T05:01:55.264Z,10.40
2019-03-04T05:04:24.519Z,10.30
2019-03-04T05:06:53.824Z,10.30
2019-03-04T05:09:23.104Z,10.20
2019-03-04T05:11:52.314Z,10.20
2019-03-04T05:14:21.640Z,10.20
2019-03-04T05:16:50.876Z,10.30
2019-03-04T05:19:20.203Z,10.20
2019-03-04T05:21:49.780Z,10.20
2019-03-04T05:24:19.117Z,10.10
2019-03-04T05:26:48.416Z,10.00
2019-03-04T05:29:17.668Z,9.90
2019-03-04T05:31:46.995Z,9.90
2019-03-04T05:34:16.280Z,9.90
2019-03-04T05:36:45.579Z,10.00
2019-03-04T05:39:14.905Z,9.90
2019-03-04T05:41:44.399Z,9.80
2019-03-04T05:44:13.938Z,9.80
2019-03-04T05:46:43.184Z,9.70
2019-03-04T05:49:12.437Z,9.70
2019-03-04T05:51:41.745Z,9.60
2019-03-04T05:54:11.339Z,9.60
2019-03-04T05:56:41.377Z,9.60
2019-03-04T05:59:19.365Z,9.50
2019-03-04T06:01:45.433Z,9.50
2019-03-04T06:04:14.969Z,9.50
2019-03-04T06:06:56.468Z,9.40
2019-03-04T06:09:25.727Z,9.40
2019-03-04T06:11:54.964Z,9.40
2019-03-04T06:14:24.207Z,9.50
2019-03-04T06:16:53.440Z,9.40
2019-03-04T06:19:22.758Z,9.40
2019-03-04T06:21:52.160Z,9.50
2019-03-04T06:24:21.492Z,9.60
2019-03-04T06:26:50.727Z,9.60
2019-03-04T06:29:19.981Z,9.60
2019-03-04T06:31:49.823Z,9.70
2019-03-04T06:34:19.073Z,9.70
2019-03-04T06:36:48.584Z,9.60
2019-03-04T06:39:18.196Z,9.70
2019-03-04T06:41:47.503Z,9.70
2019-03-04T06:44:16.869Z,9.70
2019-03-04T06:46:46.091Z,9.70
2019-03-04T06:49:15.750Z,9.60
2019-03-04T06:51:46.760Z,9.70
2019-03-04T06:54:53.216Z,9.80
2019-03-04T06:57:34.353Z,9.80
2019-03-04T07:01:02.459Z,9.90
2019-03-04T07:03:34.255Z,10.20
2019-03-04T07:06:03.848Z,10.50
2019-03-04T07:09:02.188Z,10.80
2019-03-04T07:11:31.863Z,11.00
2019-03-04T07:14:01.804Z,11.10
2019-03-04T07:16:32.191Z,11.20
2019-03-04T07:19:03.608Z,11.40
2019-03-04T07:21:33.396Z,11.50
2019-03-04T07:24:03.006Z,11.80
2019-03-04T07:26:32.241Z,12.00
2019-03-04T07:29:01.774Z,12.20
2019-03-04T07:31:31.011Z,12.30
2019-03-04T07:34:00.240Z,12.30
2019-03-04T07:36:29.496Z,12.60
2019-03-04T07:39:00.073Z,12.90
2019-03-04T07:41:31.484Z,13.00
2019-03-04T07:44:00.652Z,13.20
2019-03-04T07:46:30.021Z,13.60
2019-03-04T07:48:59.585Z,13.80
2019-03-04T07:51:29.912Z,13.80
2019-03-04T07:53:59.244Z,13.60
2019-03-04T07:56:28.476Z,13.20
2019-03-04T07:58:57.775Z,13.10
2019-03-04T08:01:27.116Z,13.00
2019-03-04T08:03:56.368Z,12.90
2019-03-04T08:06:25.694Z,12.80
2019-03-04T08:09:51.142Z,12.60
2019-03-04T08:13:10.243Z,12.60
2019-03-04T08:15:45.340Z,12.50
2019-03-04T08:18:14.572Z,12.50
2019-03-04T08:20:43.948Z,12.30
2019-03-04T08:23:13.231Z,12.10
2019-03-04T08:25:42.552Z,11.60
2019-03-04T08:28:13.547Z,11.10
2019-03-04T08:30:43.087Z,10.80
2019-03-04T08:33:13.564Z,10.50
2019-03-04T08:35:42.936Z,10.50
2019-03-04T08:38:12.231Z,10.50
2019-03-04T08:40:41.792Z,10.60
2019-03-04T08:43:11.318Z,10.50
2019-03-04T08:45:41.176Z,10.30
2019-03-04T08:48:10.403Z,10.20
2019-03-04T08:50:39.676Z,10.20
2019-03-04T08:53:08.924Z,10.20
2019-03-04T08:55:38.175Z,10.30
2019-03-04T08:58:07.411Z,10.40
2019-03-04T09:00:36.795Z,10.50
2019-03-04T09:03:06.430Z,10.60
2019-03-04T09:05:35.687Z,10.70
2019-03-04T09:08:04.920Z,10.90
2019-03-04T09:10:34.280Z,10.90
2019-03-04T09:13:03.694Z,11.10
2019-03-04T09:15:33.003Z,11.20
2019-03-04T09:18:02.602Z,11.30
2019-03-04T09:20:31.915Z,11.40
2019-03-04T09:23:01.461Z,11.50
2019-03-04T09:25:39.836Z,11.50
2019-03-04T09:28:09.172Z,11.40
2019-03-04T09:30:38.848Z,11.40
2019-03-04T09:33:08.121Z,11.40
2019-03-04T09:35:37.459Z,11.30
2019-03-04T09:38:06.996Z,11.40
2019-03-04T09:40:36.468Z,11.50
2019-03-04T09:43:06.116Z,11.40
2019-03-04T09:45:38.867Z,11.50
2019-03-04T09:48:06.275Z,11.50
2019-03-04T09:50:35.579Z,11.60
2019-03-04T09:53:05.211Z,11.80
2019-03-04T09:55:34.531Z,11.90
2019-03-04T09:58:03.823Z,11.90
2019-03-04T10:00:42.255Z,11.90
2019-03-04T10:03:47.989Z,11.90
2019-03-04T10:06:54.279Z,12.10
2019-03-04T10:09:49.901Z,12.30
2019-03-04T10:13:02.831Z,12.30
2019-03-04T10:16:01.844Z,12.30
2019-03-04T10:19:06.491Z,12.40
2019-03-04T10:21:45.636Z,12.20
2019-03-04T10:24:55.703Z,11.90
2019-03-04T10:28:11.775Z,11.90
2019-03-04T10:31:35.825Z,12.00
2019-03-04T10:34:40.480Z,12.00
2019-03-04T10:37:19.975Z,11.90
2019-03-04T10:40:18.361Z,11.80
2019-03-04T10:43:18.132Z,11.90
2019-03-04T10:46:15.932Z,11.90
2019-03-04T10:48:46.310Z,11.90
2019-03-04T10:51:16.247Z,11.80
2019-03-04T10:53:47.087Z,11.70
2019-03-04T10:56:17.818Z,11.70
2019-03-04T10:58:48.953Z,11.60
2019-03-04T11:01:30.169Z,11.50
2019-03-04T11:03:53.728Z,11.40
2019-03-04T11:06:24.462Z,11.30
2019-03-04T11:08:54.956Z,11.30
2019-03-04T11:11:29.757Z,11.10
2019-03-04T11:13:57.513Z,11.10
2019-03-04T11:16:26.897Z,11.20
2019-03-04T11:18:56.281Z,11.10
2019-03-04T11:21:26.379Z,11.10
2019-03-04T11:23:56.000Z,11.10
2019-03-04T11:26:25.459Z,11.10
2019-03-04T11:28:55.101Z,11.20
2019-03-04T11:31:24.790Z,11.20
2019-03-04T11:33:54.074Z,11.30
2019-03-04T11:36:23.467Z,11.20
2019-03-04T11:38:56.644Z,11.10
2019-03-04T11:41:26.351Z,11.10
2019-03-04T11:43:55.921Z,11.20
2019-03-04T11:46:25.261Z,11.10
2019-03-04T11:48:54.888Z,11.20
2019-03-04T11:51:25.097Z,11.20
2019-03-04T11:53:54.439Z,11.30
2019-03-04T11:56:23.821Z,11.30
2019-03-04T11:58:53.707Z,11.40
2019-03-04T12:01:32.880Z,11.40
2019-03-04T12:04:02.228Z,11.40
2019-03-04T12:06:31.565Z,11.30
2019-03-04T12:09:00.855Z,11.30
2019-03-04T12:11:38.034Z,11.20
2019-03-04T12:14:03.232Z,11.30
2019-03-04T12:16:32.615Z,11.20
2019-03-04T12:19:02.246Z,11.30
2019-03-04T12:21:31.567Z,11.20
2019-03-04T12:24:01.116Z,11.10
2019-03-04T12:26:31.072Z,11.10
2019-03-04T12:29:00.725Z,11.10
2019-03-04T12:31:34.689Z,11.10
2019-03-04T12:34:04.722Z,10.90
2019-03-04T12:36:34.068Z,10.90
2019-03-04T12:39:04.329Z,10.90
2019-03-04T12:41:33.887Z,11.00
2019-03-04T12:44:03.208Z,11.00
2019-03-04T12:46:33.103Z,11.10
2019-03-04T12:49:02.694Z,11.10
2019-03-04T12:51:32.063Z,11.20
2019-03-04T12:54:01.947Z,11.30
2019-03-04T12:56:31.448Z,11.20
2019-03-04T12:59:01.572Z,11.30
2019-03-04T13:01:30.920Z,11.40
2019-03-04T13:04:00.168Z,11.60
2019-03-04T13:06:29.420Z,11.70
2019-03-04T13:08:58.947Z,11.80
2019-03-04T13:11:28.304Z,11.90
2019-03-04T13:13:57.541Z,12.00
2019-03-04T13:16:26.929Z,12.00
2019-03-04T13:18:56.507Z,12.00
2019-03-04T13:21:26.124Z,12.10
2019-03-04T13:23:55.440Z,12.20
2019-03-04T13:26:24.707Z,12.20
2019-03-04T13:28:54.020Z,12.40
2019-03-04T13:31:23.383Z,12.40
2019-03-04T13:33:53.063Z,12.50
2019-03-04T13:36:22.683Z,12.30
2019-03-04T13:38:52.263Z,12.40
2019-03-04T13:41:22.920Z,12.50
2019-03-04T13:43:52.176Z,12.50
2019-03-04T13:46:21.628Z,12.60
2019-03-04T13:48:50.875Z,12.70
2019-03-04T13:51:20.124Z,12.80
2019-03-04T13:53:49.364Z,13.00
2019-03-04T13:56:18.897Z,13.10
2019-03-04T13:58:48.140Z,13.20
2019-03-04T14:01:17.448Z,13.20
2019-03-04T14:03:47.085Z,13.20
2019-03-04T14:06:16.780Z,13.40
2019-03-04T14:08:46.572Z,13.60
2019-03-04T14:11:15.840Z,13.80
2019-03-04T14:13:45.086Z,13.90
2019-03-04T14:16:14.896Z,14.00
2019-03-04T14:18:44.436Z,14.00
2019-03-04T14:21:13.943Z,13.90
2019-03-04T14:23:43.648Z,13.90
2019-03-04T14:26:13.260Z,13.70
2019-03-04T14:28:42.497Z,13.50
2019-03-04T14:31:11.955Z,13.30
2019-03-04T14:33:41.208Z,13.30
2019-03-04T14:36:10.761Z,13.40
2019-03-04T14:38:40.067Z,13.20
2019-03-04T14:41:09.341Z,13.10
2019-03-04T14:43:38.584Z,13.10
2019-03-04T14:46:07.891Z,13.00
2019-03-04T14:48:37.243Z,13.00
2019-03-04T14:51:06.563Z,13.00
2019-03-04T14:53:35.895Z,12.90
2019-03-04T14:56:05.218Z,13.00
2019-03-04T14:58:34.536Z,13.10
2019-03-04T15:01:04.040Z,13.20
2019-03-04T15:03:33.501Z,13.20
2019-03-04T15:06:06.815Z,13.30
2019-03-04T15:08:33.999Z,13.20
2019-03-04T15:11:03.306Z,13.10
2019-03-04T15:13:32.567Z,13.10
2019-03-04T15:16:04.441Z,12.90
2019-03-04T15:18:35.085Z,12.80
2019-03-04T15:21:03.984Z,12.60
2019-03-04T15:23:33.575Z,12.30
2019-03-04T15:26:02.927Z,12.10
2019-03-04T15:28:32.431Z,12.10
2019-03-04T15:31:01.743Z,11.90
2019-03-04T15:33:31.000Z,11.70
2019-03-04T15:36:00.235Z,11.40
2019-03-04T15:38:29.579Z,11.20
2019-03-04T15:40:59.236Z,10.60
2019-03-04T15:43:28.887Z,8.50
2019-03-04T15:45:58.356Z,7.30
2019-03-04T15:48:28.801Z,6.80
2019-03-04T15:50:58.484Z,6.70
2019-03-04T15:53:28.154Z,6.70
2019-03-04T15:55:57.404Z,6.90
2019-03-04T15:58:26.763Z,6.80
2019-03-04T16:00:56.371Z,6.90
2019-03-04T16:03:25.908Z,7.00
2019-03-04T16:05:55.141Z,7.20
2019-03-04T16:08:24.727Z,7.40
2019-03-04T16:10:53.972Z,7.60
2019-03-04T16:13:23.584Z,7.70
2019-03-04T16:15:52.902Z,7.70
2019-03-04T16:18:22.230Z,7.70
2019-03-04T16:20:51.488Z,7.60
2019-03-04T16:23:21.090Z,7.50
2019-03-04T16:25:50.413Z,7.50
2019-03-04T16:28:22.068Z,7.50
2019-03-04T16:30:51.704Z,7.40
2019-03-04T16:33:22.492Z,7.50
2019-03-04T16:35:51.993Z,7.50
2019-03-04T16:38:21.359Z,7.50
2019-03-04T16:40:50.604Z,7.60
2019-03-04T16:43:20.206Z,7.60
2019-03-04T16:45:49.528Z,7.60
2019-03-04T16:48:19.080Z,7.50
2019-03-04T16:50:48.421Z,7.50
2019-03-04T16:53:18.524Z,7.50
2019-03-04T16:55:48.057Z,7.60
2019-03-04T16:58:17.347Z,7.60
2019-03-04T17:00:47.767Z,7.60
2019-03-04T17:03:17.054Z,7.60
2019-03-04T17:05:46.381Z,7.40
2019-03-04T17:08:15.597Z,7.30
2019-03-04T17:10:45.160Z,7.10
2019-03-04T17:13:14.604Z,7.00
2019-03-04T17:15:44.140Z,6.80
2019-03-04T17:18:13.730Z,6.70
2019-03-04T17:20:43.303Z,6.60
2019-03-04T17:23:12.934Z,6.40
2019-03-04T17:25:42.895Z,6.40
2019-03-04T17:28:12.487Z,6.50
2019-03-04T17:30:41.771Z,6.50
2019-03-04T17:33:11.118Z,6.40
2019-03-04T17:35:40.720Z,6.40
2019-03-04T17:38:10.047Z,6.40
2019-03-04T17:40:39.309Z,6.40
2019-03-04T17:43:08.558Z,6.40
2019-03-04T17:45:37.819Z,6.40
2019-03-04T17:48:07.051Z,6.40
2019-03-04T17:50:36.944Z,6.40
2019-03-04T17:53:07.275Z,6.40
2019-03-04T17:55:36.547Z,6.40
2019-03-04T17:58:05.958Z,6.40
2019-03-04T18:00:36.789Z,6.40
2019-03-04T18:03:06.147Z,6.40
2019-03-04T18:05:35.493Z,6.40
2019-03-04T18:08:04.933Z,6.30
2019-03-04T18:10:34.305Z,6.30
2019-03-04T18:13:03.738Z,6.40
2019-03-04T18:15:33.454Z,6.30
2019-03-04T18:18:02.810Z,6.30
2019-03-04T18:20:34.606Z,6.30
2019-03-04T18:23:03.075Z,6.20
2019-03-04T18:25:39.359Z,6.20
2019-03-04T18:28:13.235Z,6.10
2019-03-04T18:31:26.499Z,6.00
2019-03-04T18:34:20.519Z,5.90
2019-03-04T18:37:21.531Z,5.80
2019-03-04T18:40:26.116Z,5.80
2019-03-04T18:43:17.279Z,5.80
2019-03-04T18:46:21.096Z,5.80
2019-03-04T18:48:57.929Z,5.80
2019-03-04T18:51:29.250Z,5.80
2019-03-04T18:54:03.709Z,5.80
2019-03-04T18:56:33.615Z,5.80
2019-03-04T18:59:03.473Z,5.80
2019-03-04T19:01:32.831Z,5.80
2019-03-04T19:04:02.148Z,5.80
2019-03-04T19:06:31.475Z,5.90
2019-03-04T19:09:00.735Z,5.90
2019-03-04T19:11:30.939Z,5.90
2019-03-04T19:14:00.324Z,5.90
2019-03-04T19:16:29.544Z,5.90
2019-03-04T19:18:59.120Z,6.00
2019-03-04T19:21:28.487Z,6.00
2019-03-04T19:23:58.676Z,6.00
2019-03-04T19:26:28.297Z,6.10
2019-03-04T19:28:57.996Z,6.10
2019-03-04T19:31:27.328Z,6.10
2019-03-04T19:33:56.604Z,6.10
2019-03-04T19:36:25.936Z,6.10
2019-03-04T19:38:55.853Z,6.10
2019-03-04T19:41:25.277Z,6.10
2019-03-04T19:43:54.849Z,6.10
2019-03-04T19:46:24.113Z,6.20
2019-03-04T19:48:53.524Z,6.20
2019-03-04T19:51:23.185Z,6.20
2019-03-04T19:53:52.458Z,6.30
2019-03-04T19:56:21.768Z,6.40
2019-03-04T19:58:51.004Z,6.40
2019-03-04T20:01:20.904Z,6.50
2019-03-04T20:03:50.205Z,6.40
2019-03-04T20:06:19.531Z,6.40
2019-03-04T20:08:48.970Z,6.40
2019-03-04T20:11:18.483Z,6.40
2019-03-04T20:13:47.763Z,6.40
2019-03-04T20:16:17.168Z,6.30
2019-03-04T20:18:46.399Z,6.20
2019-03-04T20:21:16.236Z,6.20
2019-03-04T20:23:45.882Z,6.10
2019-03-04T20:26:15.501Z,6.00
2019-03-04T20:28:44.817Z,6.00
2019-03-04T20:31:14.542Z,5.90
2019-03-04T20:33:45.005Z,5.80
2019-03-04T20:36:14.795Z,5.70
2019-03-04T20:38:46.196Z,5.70
2019-03-04T20:41:15.455Z,5.70
2019-03-04T20:43:45.046Z,5.70
2019-03-04T20:46:14.375Z,5.70
2019-03-04T20:48:43.751Z,5.70
2019-03-04T20:51:13.083Z,5.70
2019-03-04T20:53:43.048Z,5.70
2019-03-04T20:56:12.315Z,5.70
2019-03-04T20:58:41.684Z,5.70
2019-03-04T21:01:11.031Z,5.60
2019-03-04T21:03:40.381Z,5.60
2019-03-04T21:06:09.949Z,5.60
2019-03-04T21:08:39.561Z,5.50
2019-03-04T21:11:09.235Z,5.50
2019-03-04T21:13:38.584Z,5.40
2019-03-04T21:16:07.919Z,5.40
2019-03-04T21:18:37.385Z,5.40
2019-03-04T21:21:07.496Z,5.40
2019-03-04T21:23:36.742Z,5.30
2019-03-04T21:26:18.791Z,5.30
2019-03-04T21:29:30.124Z,5.20
2019-03-04T21:32:10.045Z,5.10
2019-03-04T21:35:23.407Z,5.10
2019-03-04T21:37:52.951Z,5.10
2019-03-04T21:41:02.963Z,5.10
2019-03-04T21:43:40.402Z,5.10
2019-03-04T21:46:31.274Z,5.10
2019-03-04T21:49:04.756Z,5.00
2019-03-04T21:52:00.527Z,5.00
2019-03-04T21:54:29.770Z,5.00
2019-03-04T21:57:29.633Z,5.00
2019-03-04T21:59:58.983Z,4.90
2019-03-04T22:02:56.367Z,4.90
2019-03-04T22:05:25.912Z,5.00
2019-03-04T22:07:55.395Z,5.00
2019-03-04T22:10:24.721Z,4.90
2019-03-04T22:12:54.075Z,4.90
2019-03-04T22:15:23.393Z,4.90
2019-03-04T22:17:53.011Z,4.90
2019-03-04T22:20:22.521Z,4.90
2019-03-04T22:22:51.995Z,4.80
2019-03-04T22:25:21.438Z,4.70
2019-03-04T22:27:50.771Z,4.70
2019-03-04T22:30:20.472Z,4.80
2019-03-04T22:32:49.788Z,4.70
2019-03-04T22:35:19.573Z,4.80
2019-03-04T22:37:48.890Z,4.80
2019-03-04T22:40:19.193Z,4.70
2019-03-04T22:42:48.638Z,4.80
2019-03-04T22:45:19.568Z,4.70
2019-03-04T22:47:49.665Z,4.70
2019-03-04T22:50:19.453Z,4.70
2019-03-04T22:52:49.022Z,4.80
2019-03-04T22:55:21.433Z,4.80
2019-03-04T22:57:50.660Z,4.70
2019-03-04T23:01:28.936Z,4.70
2019-03-04T23:04:10.694Z,4.80
2019-03-04T23:06:40.979Z,4.90
2019-03-04T23:09:12.059Z,5.00
2019-03-04T23:11:44.844Z,5.00
2019-03-04T23:14:17.830Z,5.00
2019-03-04T23:16:47.063Z,5.10
2019-03-04T23:19:16.329Z,5.20
2019-03-04T23:21:45.684Z,5.30
2019-03-04T23:24:15.016Z,5.40
2019-03-04T23:26:44.320Z,5.40
2019-03-04T23:29:13.827Z,5.50
2019-03-04T23:31:44.973Z,5.50
2019-03-04T23:34:14.745Z,5.50
2019-03-04T23:36:44.042Z,5.40
2019-03-04T23:39:14.388Z,5.40
2019-03-04T23:41:44.387Z,5.30
2019-03-04T23:44:13.860Z,5.30
2019-03-04T23:46:43.368Z,5.30
2019-03-04T23:49:12.679Z,5.20
2019-03-04T23:51:41.916Z,5.20
2019-03-04T23:54:11.314Z,5.20
2019-03-04T23:56:40.887Z,5.20
2019-03-04T23:59:10.556Z,5.20
